Time;durP1;ratioP1;P1;durP2;ratioP2;P2;SDS_P1;SDS_P2;PMS_P1;PMS_P2;Temp;Humidity;BMP_temperature;BMP_pressure;BME280_temperature;BME280_humidity;BME280_pressure;Samples;Min_cycle;Max_cycle;Signal;HPM_P1;HPM_P2
2023/08/13 00:02:09;;;;;;;12.73;2.67;;;17.00;99.90;;;;;;5047612;28;20034;-49
2023/08/13 00:04:34;;;;;;;10.88;2.38;;;17.00;99.90;;;;;;5046572;28;20087;-49
2023/08/13 00:07:00;;;;;;;6.72;1.98;;;16.90;99.90;;;;;;5051662;28;20397;-48
2023/08/13 00:09:26;;;;;;;12.18;2.33;;;16.90;99.90;;;;;;5052749;28;20036;-49
2023/08/13 00:11:53;;;;;;;10.40;2.05;;;16.90;99.90;;;;;;5053013;28;20090;-50
2023/08/13 00:14:19;;;;;;;9.10;2.42;;;16.80;99.90;;;;;;5052953;28;20041;-50
2023/08/13 00:16:45;;;;;;;7.28;2.10;;;16.90;99.90;;;;;;5052482;28;20461;-50
2023/08/13 00:19:11;;;;;;;8.10;2.25;;;16.80;99.90;;;;;;5052277;28;20037;-48
2023/08/13 00:21:36;;;;;;;6.70;2.15;;;16.80;99.90;;;;;;5052967;28;20040;-51
2023/08/13 00:24:02;;;;;;;12.07;2.53;;;16.80;99.90;;;;;;5052997;28;20044;-50
2023/08/13 00:26:28;;;;;;;12.05;2.75;;;16.80;99.90;;;;;;5052156;28;20041;-50
2023/08/13 00:28:53;;;;;;;13.88;2.35;;;16.80;99.90;;;;;;5046445;28;20494;-49
2023/08/13 00:31:19;;;;;;;9.52;2.22;;;16.80;99.90;;;;;;5040564;28;20136;-49
2023/08/13 00:33:44;;;;;;;12.38;2.55;;;16.80;99.90;;;;;;5032305;28;20037;-51
2023/08/13 00:36:10;;;;;;;8.77;2.50;;;16.90;99.90;;;;;;5050428;28;20044;-49
2023/08/13 00:38:36;;;;;;;11.40;2.75;;;16.90;99.90;;;;;;5052205;28;20033;-49
2023/08/13 00:41:01;;;;;;;10.70;3.03;;;16.90;99.90;;;;;;5052283;28;20192;-49
2023/08/13 00:43:27;;;;;;;10.55;2.90;;;16.90;99.90;;;;;;5052434;28;20040;-49
2023/08/13 00:45:53;;;;;;;18.67;2.85;;;16.90;99.90;;;;;;5052062;28;20036;-49
2023/08/13 00:48:18;;;;;;;8.00;2.13;;;16.90;99.90;;;;;;5051009;28;20116;-50
2023/08/13 00:50:45;;;;;;;11.25;2.83;;;16.90;99.90;;;;;;5052199;28;20508;-48
2023/08/13 00:53:11;;;;;;;13.15;2.88;;;16.90;99.90;;;;;;5052215;28;20045;-51
2023/08/13 00:55:37;;;;;;;;;;;16.90;99.90;;;;;;5052593;28;20051;-49
2023/08/13 00:58:03;;;;;;;9.40;2.70;;;16.90;99.90;;;;;;5051887;28;19925;-50
2023/08/13 01:00:30;;;;;;;13.43;2.63;;;16.90;99.90;;;;;;5052022;28;20401;-48
2023/08/13 01:02:56;;;;;;;8.70;2.92;;;16.90;99.90;;;;;;5051664;28;20489;-49
2023/08/13 01:05:24;;;;;;;;;;;16.90;99.90;;;;;;5052406;28;20332;-49
2023/08/13 01:08:04;;;;;;;14.70;3.38;;;17.00;99.90;;;;;;5051762;28;20365;-49
2023/08/13 01:10:34;;;;;;;12.68;2.78;;;17.00;99.90;;;;;;5046183;28;20490;-47
2023/08/13 01:13:10;;;;;;;8.82;2.60;;;17.10;99.90;;;;;;5043418;28;20098;-50
2023/08/13 01:15:40;;;;;;;10.65;2.30;;;17.00;99.90;;;;;;5046528;28;20088;-49
2023/08/13 01:18:07;;;;;;;7.35;2.42;;;17.00;99.90;;;;;;5047612;28;20473;-49
2023/08/13 01:20:35;;;;;;;10.07;2.58;;;17.00;99.90;;;;;;5048843;28;20045;-48
2023/08/13 01:23:01;;;;;;;15.23;3.45;;;17.00;99.90;;;;;;5050817;28;20040;-48
2023/08/13 01:25:28;;;;;;;11.48;3.38;;;17.00;99.90;;;;;;5042950;28;20044;-51
2023/08/13 01:28:40;;;;;;;10.55;3.13;;;17.00;99.90;;;;;;5047977;28;20043;-49
2023/08/13 01:31:12;;;;;;;15.02;2.95;;;17.00;99.90;;;;;;5001099;28;20055;-49
2023/08/13 01:33:41;;;;;;;10.32;3.03;;;17.00;99.90;;;;;;5051581;28;20321;-49
2023/08/13 01:36:07;;;;;;;9.57;3.40;;;17.00;99.90;;;;;;5050846;28;20528;-50
2023/08/13 01:38:33;;;;;;;12.30;2.85;;;16.90;99.90;;;;;;5049830;28;20048;-50
2023/08/13 01:41:03;;;;;;;8.55;2.30;;;16.90;99.90;;;;;;5051522;28;20037;-50
2023/08/13 01:43:29;;;;;;;8.77;3.13;;;16.80;99.90;;;;;;5051103;28;20079;-50
2023/08/13 01:45:55;;;;;;;22.80;5.60;;;16.90;99.90;;;;;;5051382;28;20073;-50
2023/08/13 01:48:21;;;;;;;;;;;16.80;99.90;;;;;;5050940;28;20573;-49
2023/08/13 01:50:47;;;;;;;13.55;2.97;;;16.80;99.90;;;;;;5050795;28;20004;-50
2023/08/13 01:53:12;;;;;;;8.13;2.03;;;16.70;99.90;;;;;;5051183;28;20116;-50
2023/08/13 01:55:38;;;;;;;14.85;2.92;;;16.70;99.90;;;;;;5051049;28;20029;-49
2023/08/13 01:58:04;;;;;;;15.48;3.30;;;16.70;99.90;;;;;;5050317;28;20045;-50
2023/08/13 02:00:29;;;;;;;16.60;3.38;;;16.70;99.90;;;;;;5050211;28;20033;-47
2023/08/13 02:02:55;;;;;;;13.05;3.42;;;16.70;99.90;;;;;;5051032;28;20033;-49
2023/08/13 02:05:21;;;;;;;9.35;2.80;;;16.60;99.90;;;;;;5050549;28;20041;-49
2023/08/13 02:07:47;;;;;;;11.32;2.83;;;16.60;99.90;;;;;;5050470;28;20044;-50
2023/08/13 02:10:12;;;;;;;11.07;2.90;;;16.60;99.90;;;;;;5050965;28;20103;-49
2023/08/13 02:12:39;;;;;;;14.15;3.38;;;16.60;99.90;;;;;;5027572;28;20422;-49
2023/08/13 02:15:05;;;;;;;14.40;3.15;;;16.60;99.90;;;;;;5050725;28;20402;-49
2023/08/13 02:17:31;;;;;;;;;;;16.60;99.90;;;;;;5050547;28;20029;-49
2023/08/13 02:19:59;;;;;;;12.80;3.60;;;16.60;99.90;;;;;;5050014;28;19924;-48
2023/08/13 02:22:24;;;;;;;8.13;2.65;;;16.50;99.90;;;;;;5050412;28;20073;-50
2023/08/13 02:24:50;;;;;;;11.77;3.50;;;16.50;99.90;;;;;;5050524;28;20073;-51
2023/08/13 02:27:16;;;;;;;12.20;3.83;;;16.40;99.90;;;;;;5050184;28;20497;-49
2023/08/13 02:29:42;;;;;;;12.82;3.15;;;16.50;99.90;;;;;;5035549;28;20044;-49
2023/08/13 02:32:07;;;;;;;13.75;3.38;;;16.40;99.90;;;;;;5046084;28;20124;-47
2023/08/13 02:34:41;;;;;;;16.00;3.85;;;16.40;99.90;;;;;;5047495;28;20112;-48
2023/08/13 02:37:07;;;;;;;15.18;2.25;;;16.40;99.90;;;;;;5045525;28;20486;-48
2023/08/13 02:39:32;;;;;;;10.45;2.90;;;16.30;99.90;;;;;;5044802;28;20045;-50
2023/08/13 02:41:58;;;;;;;15.45;3.95;;;16.30;99.90;;;;;;5049076;28;20059;-47
2023/08/13 02:44:25;;;;;;;13.43;3.28;;;16.30;99.90;;;;;;5047341;28;20075;-50
2023/08/13 02:46:50;;;;;;;11.10;2.45;;;16.30;99.90;;;;;;5048143;28;20044;-49
2023/08/13 02:49:16;;;;;;;20.23;3.80;;;16.20;99.90;;;;;;5047530;28;21233;-50
2023/08/13 02:51:41;;;;;;;14.73;3.90;;;16.20;99.90;;;;;;5047225;28;20029;-48
2023/08/13 02:54:07;;;;;;;12.13;4.03;;;16.20;99.90;;;;;;5050066;28;20394;-49
2023/08/13 02:56:32;;;;;;;10.70;3.22;;;16.10;99.90;;;;;;5049691;28;20118;-48
2023/08/13 02:58:58;;;;;;;14.38;3.13;;;16.10;99.90;;;;;;5048982;28;20048;-52
2023/08/13 03:01:24;;;;;;;10.95;3.53;;;16.10;99.90;;;;;;5049241;28;20639;-49
2023/08/13 03:03:52;;;;;;;8.50;3.13;;;16.10;99.90;;;;;;5049325;28;20037;-49
2023/08/13 03:06:19;;;;;;;13.15;3.45;;;16.00;99.90;;;;;;5050236;28;20103;-49
2023/08/13 03:08:44;;;;;;;9.13;2.60;;;16.00;99.90;;;;;;5031245;28;20045;-48
2023/08/13 03:11:10;;;;;;;11.50;2.75;;;16.00;99.90;;;;;;5050136;28;20041;-48
2023/08/13 03:13:35;;;;;;;10.35;3.53;;;16.00;99.90;;;;;;5044423;28;20040;-50
2023/08/13 03:16:02;;;;;;;12.85;2.88;;;16.00;99.90;;;;;;5049747;28;20036;-48
2023/08/13 03:18:27;;;;;;;10.70;3.15;;;15.90;99.90;;;;;;5048810;28;20144;-49
2023/08/13 03:20:53;;;;;;;11.43;3.10;;;15.90;99.90;;;;;;5050035;28;20112;-50
2023/08/13 03:23:18;;;;;;;10.55;3.05;;;15.80;99.90;;;;;;5049483;28;20072;-49
2023/08/13 03:25:44;;;;;;;11.88;4.05;;;15.80;99.90;;;;;;5049746;28;20037;-49
2023/08/13 03:28:09;;;;;;;9.70;2.90;;;15.80;99.90;;;;;;5049133;28;20051;-49
2023/08/13 03:30:35;;;;;;;11.68;3.67;;;15.80;99.90;;;;;;5049376;28;20041;-49
2023/08/13 03:33:00;;;;;;;13.45;3.72;;;15.70;99.90;;;;;;5049598;28;20044;-49
2023/08/13 03:35:26;;;;;;;8.65;3.47;;;15.70;99.90;;;;;;5049301;28;20119;-50
2023/08/13 03:37:52;;;;;;;11.48;2.78;;;15.70;99.90;;;;;;5049378;28;20049;-50
2023/08/13 03:40:17;;;;;;;8.93;2.90;;;15.70;99.90;;;;;;5049326;28;20553;-49
2023/08/13 03:42:43;;;;;;;13.32;3.60;;;15.70;99.90;;;;;;5031605;28;20033;-50
2023/08/13 03:45:09;;;;;;;8.95;2.40;;;15.70;99.90;;;;;;5049372;28;20047;-48
2023/08/13 03:47:34;;;;;;;11.68;3.72;;;15.70;99.90;;;;;;5049164;28;20041;-50
2023/08/13 03:50:01;;;;;;;14.32;3.30;;;15.70;99.90;;;;;;5049261;28;20029;-50
2023/08/13 03:52:27;;;;;;;11.68;3.55;;;15.70;99.90;;;;;;5049347;28;20108;-48
2023/08/13 03:54:53;;;;;;;15.43;2.97;;;15.70;99.90;;;;;;5049414;28;20120;-50
2023/08/13 03:57:18;;;;;;;14.38;3.38;;;15.60;99.90;;;;;;5049151;28;20448;-51
2023/08/13 03:59:44;;;;;;;12.63;2.88;;;15.70;99.90;;;;;;5048933;28;20029;-48
2023/08/13 04:02:09;;;;;;;14.07;2.88;;;15.60;99.90;;;;;;5049106;28;20037;-49
2023/08/13 04:04:35;;;;;;;14.02;3.05;;;15.60;99.90;;;;;;5049603;28;20056;-49
2023/08/13 04:07:01;;;;;;;11.27;1.77;;;15.60;99.90;;;;;;5049333;28;20044;-48
2023/08/13 04:09:27;;;;;;;9.73;2.88;;;15.60;99.90;;;;;;5048878;28;20044;-50
2023/08/13 04:11:53;;;;;;;12.73;2.67;;;15.60;99.90;;;;;;5049466;28;20642;-49
2023/08/13 04:14:18;;;;;;;10.52;2.83;;;15.60;99.90;;;;;;5044047;28;20114;-51
2023/08/13 04:16:44;;;;;;;10.98;2.53;;;15.60;99.90;;;;;;5048667;28;20520;-49
2023/08/13 04:19:09;;;;;;;10.00;2.80;;;15.50;99.90;;;;;;5049056;28;20214;-48
2023/08/13 04:21:35;;;;;;;9.27;2.40;;;15.50;99.90;;;;;;5049160;28;20504;-49
2023/08/13 04:24:00;;;;;;;11.57;2.95;;;15.50;99.90;;;;;;5033580;28;20037;-50
2023/08/13 04:26:26;;;;;;;6.13;2.60;;;15.50;99.90;;;;;;5052686;28;20032;-49
2023/08/13 04:28:52;;;;;;;12.60;2.88;;;15.40;99.90;;;;;;5052405;28;20128;-49
2023/08/13 04:31:19;;;;;;;6.65;3.22;;;15.50;99.90;;;;;;5051926;28;20410;-49
2023/08/13 04:33:46;;;;;;;18.40;3.92;;;15.50;99.90;;;;;;5052879;28;20041;-48
2023/08/13 04:36:12;;;;;;;15.27;3.45;;;15.50;99.90;;;;;;5052443;28;20090;-50
2023/08/13 04:38:37;;;;;;;8.90;2.90;;;15.50;99.90;;;;;;5052098;28;20049;-49
2023/08/13 04:41:03;;;;;;;15.23;3.03;;;15.40;99.90;;;;;;5052291;28;20040;-49
2023/08/13 04:43:28;;;;;;;11.73;3.72;;;15.50;99.90;;;;;;5052395;28;20072;-47
2023/08/13 04:45:54;;;;;;;10.32;3.15;;;15.50;99.90;;;;;;5051777;28;20543;-48
2023/08/13 04:48:43;;;;;;;15.77;3.03;;;15.50;99.90;;;;;;5052251;28;20040;-49
2023/08/13 04:51:09;;;;;;;12.20;3.40;;;15.50;99.90;;;;;;5052180;28;20055;-50
2023/08/13 04:53:35;;;;;;;8.82;3.28;;;15.50;99.90;;;;;;5052104;28;20044;-48
2023/08/13 04:56:00;;;;;;;10.18;2.80;;;15.50;99.90;;;;;;5046974;28;20039;-51
2023/08/13 04:58:26;;;;;;;11.32;3.35;;;15.50;99.90;;;;;;5049730;28;20073;-49
2023/08/13 05:00:52;;;;;;;12.60;3.65;;;15.50;99.90;;;;;;5050201;28;20041;-48
2023/08/13 05:03:17;;;;;;;15.43;3.85;;;15.60;99.90;;;;;;5044075;28;20064;-49
2023/08/13 05:05:43;;;;;;;10.05;3.28;;;15.60;99.90;;;;;;5048212;28;20029;-51
2023/08/13 05:08:08;;;;;;;13.52;3.85;;;15.60;99.90;;;;;;5051699;28;20037;-51
2023/08/13 05:10:35;;;;;;;7.65;3.40;;;15.60;99.90;;;;;;5051706;28;20028;-48
2023/08/13 05:13:01;;;;;;;10.10;3.53;;;15.70;99.90;;;;;;5051495;28;20561;-47
2023/08/13 05:15:27;;;;;;;11.88;3.75;;;15.70;99.90;;;;;;5046457;28;20044;-48
2023/08/13 05:17:53;;;;;;;11.93;3.30;;;15.70;99.90;;;;;;5051507;28;20103;-50
2023/08/13 05:20:18;;;;;;;12.88;3.55;;;15.80;99.90;;;;;;5051625;28;20490;-49
2023/08/13 05:22:44;;;;;;;12.60;3.35;;;15.80;99.90;;;;;;5051598;28;20101;-49
2023/08/13 05:25:09;;;;;;;12.63;3.22;;;15.90;99.90;;;;;;5051305;28;20048;-52
2023/08/13 05:27:35;;;;;;;11.20;3.22;;;16.00;99.90;;;;;;5051028;28;20025;-50
2023/08/13 05:30:02;;;;;;;9.07;3.22;;;16.00;99.90;;;;;;5051209;28;20119;-48
2023/08/13 05:32:28;;;;;;;11.88;3.22;;;16.10;99.90;;;;;;5051438;28;20113;-49
2023/08/13 05:34:54;;;;;;;;;;;16.20;99.90;;;;;;5051854;28;20621;-50
2023/08/13 05:37:20;;;;;;;12.43;3.10;;;16.20;99.90;;;;;;5051100;28;20007;-48
2023/08/13 05:39:45;;;;;;;13.07;4.30;;;16.30;99.90;;;;;;5051398;28;20068;-49
2023/08/13 05:42:11;;;;;;;12.70;3.50;;;16.40;99.90;;;;;;5050524;28;20054;-49
2023/08/13 05:44:37;;;;;;;18.92;3.05;;;16.40;99.90;;;;;;5051490;28;20047;-49
2023/08/13 05:47:03;;;;;;;9.30;3.10;;;16.40;99.90;;;;;;5051069;28;20048;-49
2023/08/13 05:49:28;;;;;;;10.57;3.53;;;16.50;99.90;;;;;;5050987;28;20063;-50
2023/08/13 05:51:54;;;;;;;8.55;2.53;;;16.60;99.90;;;;;;5050898;28;20037;-49
2023/08/13 05:54:19;;;;;;;8.75;3.40;;;16.60;99.90;;;;;;5051260;28;20047;-49
2023/08/13 05:56:45;;;;;;;12.13;3.45;;;16.70;99.90;;;;;;5050271;28;20028;-49
2023/08/13 05:59:10;;;;;;;12.90;3.30;;;16.90;99.90;;;;;;5050886;28;20359;-49
2023/08/13 06:01:36;;;;;;;10.07;2.53;;;16.90;99.90;;;;;;5050709;28;20067;-49
2023/08/13 06:04:02;;;;;;;12.57;3.63;;;17.00;99.90;;;;;;5051140;28;20037;-50
2023/08/13 06:06:27;;;;;;;11.98;2.85;;;17.10;99.90;;;;;;5050930;28;20398;-50
2023/08/13 06:08:56;;;;;;;11.27;2.63;;;17.10;99.90;;;;;;5047589;28;20041;-48
2023/08/13 06:11:22;;;;;;;11.20;3.35;;;17.20;99.90;;;;;;5041341;28;20045;-49
2023/08/13 06:13:50;;;;;;;10.13;2.63;;;17.20;99.90;;;;;;5044095;28;20034;-50
2023/08/13 06:16:15;;;;;;;11.88;3.35;;;17.30;99.90;;;;;;5046363;28;20406;-49
2023/08/13 06:18:41;;;;;;;10.38;3.08;;;17.30;99.90;;;;;;5050455;28;20044;-49
2023/08/13 06:21:07;;;;;;;11.85;3.42;;;17.40;99.90;;;;;;5050648;28;20033;-50
2023/08/13 06:23:32;;;;;;;6.32;2.47;;;17.40;99.90;;;;;;5048431;28;20037;-48
2023/08/13 06:25:58;;;;;;;9.68;2.55;;;17.50;99.90;;;;;;5031767;28;20053;-50
2023/08/13 06:28:23;;;;;;;18.02;4.18;;;17.50;99.90;;;;;;5046549;28;20033;-50
2023/08/13 06:30:50;;;;;;;7.95;2.97;;;17.50;99.90;;;;;;5046053;28;20041;-48
2023/08/13 06:33:15;;;;;;;9.50;2.38;;;17.60;99.90;;;;;;5044149;28;20661;-50
2023/08/13 06:35:46;;;;;;;15.93;3.33;;;17.60;99.90;;;;;;5041662;28;20072;-52
2023/08/13 06:38:12;;;;;;;13.43;2.85;;;17.60;99.90;;;;;;5039731;28;20048;-50
2023/08/13 06:40:38;;;;;;;11.70;2.70;;;17.60;99.90;;;;;;5040693;28;20033;-50
2023/08/13 06:43:04;;;;;;;13.05;3.05;;;17.70;99.90;;;;;;5045204;28;20090;-48
2023/08/13 06:45:29;;;;;;;12.43;3.33;;;17.80;99.90;;;;;;5041209;28;20501;-50
2023/08/13 06:47:57;;;;;;;13.55;3.97;;;17.80;99.90;;;;;;5047717;28;20052;-51
2023/08/13 06:50:23;;;;;;;9.98;3.05;;;17.90;99.90;;;;;;5048527;28;20045;-48
2023/08/13 06:52:48;;;;;;;11.02;2.65;;;18.00;99.90;;;;;;5041433;28;20116;-50
2023/08/13 06:55:14;;;;;;;10.38;3.15;;;18.10;99.90;;;;;;5042227;28;20881;-50
2023/08/13 06:57:39;;;;;;;11.90;2.50;;;18.10;99.90;;;;;;5049452;28;20492;-50
2023/08/13 07:00:06;;;;;;;10.63;2.95;;;18.10;99.90;;;;;;5050069;28;20102;-50
2023/08/13 07:02:31;;;;;;;;;;;18.10;99.90;;;;;;5049606;28;20090;-48
2023/08/13 07:04:57;;;;;;;12.45;2.63;;;18.10;99.90;;;;;;5048512;28;19917;-50
2023/08/13 07:07:23;;;;;;;7.80;2.47;;;18.20;99.90;;;;;;5046496;28;20047;-49
2023/08/13 07:09:48;;;;;;;8.50;3.15;;;18.30;99.90;;;;;;5049387;28;20166;-49
2023/08/13 07:12:14;;;;;;;10.02;3.17;;;18.40;99.90;;;;;;5047945;28;20091;-49
2023/08/13 07:14:40;;;;;;;12.00;2.80;;;18.40;99.90;;;;;;5049654;28;20123;-50
2023/08/13 07:17:06;;;;;;;12.95;3.78;;;18.50;99.90;;;;;;5046636;28;20032;-49
2023/08/13 07:19:32;;;;;;;12.50;3.08;;;18.60;99.90;;;;;;5049706;28;20248;-49
2023/08/13 07:21:58;;;;;;;8.35;2.33;;;18.70;99.90;;;;;;5047235;28;20506;-48
2023/08/13 07:24:23;;;;;;;11.80;3.55;;;18.80;99.90;;;;;;5049999;28;20041;-51
2023/08/13 07:26:49;;;;;;;10.10;2.75;;;18.90;99.90;;;;;;5047178;28;20482;-49
2023/08/13 07:29:15;;;;;;;13.35;3.30;;;18.90;99.90;;;;;;5044276;28;20457;-49
2023/08/13 07:31:41;;;;;;;10.43;2.50;;;19.00;99.90;;;;;;5031408;28;20049;-47
2023/08/13 07:34:06;;;;;;;18.13;2.83;;;19.00;99.90;;;;;;5049859;28;20063;-49
2023/08/13 07:36:33;;;;;;;9.65;2.38;;;19.10;99.90;;;;;;5046676;28;20451;-51
2023/08/13 07:38:59;;;;;;;9.32;2.15;;;19.20;99.90;;;;;;5048789;28;20095;-50
2023/08/13 07:41:24;;;;;;;8.70;2.63;;;19.30;99.90;;;;;;5045037;28;20478;-49
2023/08/13 07:43:50;;;;;;;7.63;2.33;;;19.30;99.90;;;;;;5035406;28;20029;-50
2023/08/13 07:46:15;;;;;;;;;;;19.40;99.90;;;;;;5049851;28;20296;-50
2023/08/13 07:48:42;;;;;;;11.25;1.77;;;19.40;99.90;;;;;;5049206;28;19970;-49
2023/08/13 07:51:08;;;;;;;10.27;2.08;;;19.40;99.90;;;;;;5048792;28;20116;-49
2023/08/13 07:53:34;;;;;;;;;;;19.50;99.90;;;;;;5049658;28;20506;-49
2023/08/13 07:55:59;;;;;;;7.43;1.83;;;19.50;99.90;;;;;;5031050;28;19917;-49
2023/08/13 07:58:25;;;;;;;12.93;3.00;;;19.50;99.90;;;;;;5051073;28;20090;-48
2023/08/13 08:00:51;;;;;;;13.70;2.60;;;19.60;99.90;;;;;;5052870;28;20102;-50
2023/08/13 08:03:16;;;;;;;;;;;19.60;99.90;;;;;;5053824;28;20049;-50
2023/08/13 08:05:42;;;;;;;7.53;2.58;;;19.80;99.90;;;;;;5035646;28;20433;-50
2023/08/13 08:08:08;;;;;;;6.18;1.92;;;19.80;99.90;;;;;;5052013;28;20453;-49
2023/08/13 08:10:33;;;;;;;;;;;19.90;99.90;;;;;;5048502;28;20414;-49
2023/08/13 08:12:59;;;;;;;11.30;2.08;;;19.80;99.90;;;;;;5052992;28;19917;-49
2023/08/13 08:15:25;;;;;;;6.30;1.63;;;19.90;99.90;;;;;;5046194;28;20030;-49
2023/08/13 08:17:50;;;;;;;9.00;1.90;;;19.90;99.90;;;;;;5052144;28;20495;-51
2023/08/13 08:20:16;;;;;;;;;;;19.90;99.90;;;;;;5049282;28;20552;-48
2023/08/13 08:22:42;;;;;;;8.15;2.13;;;19.90;99.90;;;;;;5047694;28;19921;-48
2023/08/13 08:25:10;;;;;;;;;;;20.00;99.90;;;;;;5052463;28;20512;-49
2023/08/13 08:27:37;;;;;;;8.00;2.13;;;20.00;99.90;;;;;;5052357;28;19923;-47
2023/08/13 08:30:03;;;;;;;10.07;2.83;;;20.10;99.90;;;;;;5047273;28;20033;-49
2023/08/13 08:32:30;;;;;;;6.63;1.45;;;20.10;99.90;;;;;;5042829;28;20040;-49
2023/08/13 08:34:56;;;;;;;10.60;2.42;;;20.20;99.90;;;;;;5047720;28;20064;-49
2023/08/13 08:37:22;;;;;;;8.80;1.80;;;20.30;99.90;;;;;;5045976;28;20505;-49
2023/08/13 08:39:47;;;;;;;;;;;20.30;99.90;;;;;;5047324;28;20045;-50
2023/08/13 08:42:13;;;;;;;11.95;2.65;;;20.30;99.90;;;;;;5048783;28;20579;-50
2023/08/13 08:44:45;;;;;;;17.55;3.63;;;20.30;99.90;;;;;;5046854;28;20141;-50
2023/08/13 08:47:11;;;;;;;8.85;1.75;;;20.40;99.90;;;;;;5035839;28;20453;-50
2023/08/13 08:49:37;;;;;;;7.50;1.58;;;20.40;99.90;;;;;;5039882;28;20490;-49
2023/08/13 08:52:03;;;;;;;;;;;20.40;99.90;;;;;;5040120;28;20073;-51
2023/08/13 08:54:28;;;;;;;8.25;1.83;;;20.50;99.90;;;;;;5012739;28;20342;-50
2023/08/13 08:56:54;;;;;;;;;;;20.50;99.90;;;;;;5042319;28;20056;-50
2023/08/13 08:59:20;;;;;;;6.55;2.10;;;20.60;99.90;;;;;;5041309;28;19927;-50
2023/08/13 09:01:45;;;;;;;;;;;20.70;99.90;;;;;;5026838;28;20044;-50
2023/08/13 09:04:11;;;;;;;7.35;1.75;;;20.70;99.90;;;;;;5039465;28;20007;-50
2023/08/13 09:06:55;;;;;;;;;;;20.80;99.90;;;;;;5044660;28;20042;-51
2023/08/13 09:09:22;;;;;;;6.75;1.27;;;20.80;99.90;;;;;;5038818;28;19920;-51
2023/08/13 09:11:48;;;;;;;7.03;1.02;;;20.70;99.90;;;;;;5046412;28;20493;-50
2023/08/13 09:14:14;;;;;;;;;;;20.80;99.90;;;;;;5045517;28;20585;-50
2023/08/13 09:16:50;;;;;;;8.47;1.40;;;20.80;99.90;;;;;;5041223;28;19952;-50
2023/08/13 09:19:16;;;;;;;8.18;1.65;;;20.80;99.90;;;;;;5046636;28;20120;-51
2023/08/13 09:21:49;;;;;;;7.85;1.00;;;20.90;99.90;;;;;;5035717;28;20045;-49
2023/08/13 09:24:15;;;;;;;9.77;1.20;;;21.00;99.90;;;;;;5041346;28;20036;-52
2023/08/13 09:26:40;;;;;;;;;;;21.10;99.90;;;;;;5044134;28;20029;-50
2023/08/13 09:29:07;;;;;;;5.85;1.33;;;21.10;99.90;;;;;;5050232;28;19916;-50
2023/08/13 09:31:33;;;;;;;6.53;0.77;;;21.20;99.90;;;;;;5051534;28;20040;-52
2023/08/13 09:34:00;;;;;;;3.92;0.63;;;21.30;99.90;;;;;;5050859;28;20518;-50
2023/08/13 09:36:27;;;;;;;6.32;1.13;;;21.40;99.90;;;;;;5044911;28;20033;-51
2023/08/13 09:38:52;;;;;;;4.80;0.63;;;21.40;99.90;;;;;;5046829;28;20099;-51
2023/08/13 09:41:19;;;;;;;;;;;21.50;99.90;;;;;;5040694;28;20033;-51
2023/08/13 09:43:47;;;;;;;7.80;0.73;;;21.60;99.90;;;;;;5039262;28;19917;-50
2023/08/13 09:46:19;;;;;;;4.32;0.60;;;21.60;99.90;;;;;;5035813;28;20439;-50
2023/08/13 09:48:46;;;;;;;5.80;0.85;;;21.60;99.90;;;;;;5036012;28;20040;-51
2023/08/13 09:51:17;;;;;;;3.83;0.40;;;21.70;99.90;;;;;;5040598;28;20048;-50
2023/08/13 09:53:48;;;;;;;4.35;0.40;;;21.70;99.90;;;;;;5039729;28;20671;-50
2023/08/13 09:56:16;;;;;;;2.33;0.40;;;21.70;99.90;;;;;;5042707;28;20072;-51
2023/08/13 09:58:42;;;;;;;3.38;0.50;;;21.70;99.90;;;;;;5041016;28;20111;-50
2023/08/13 10:01:07;;;;;;;;;;;21.70;99.90;;;;;;5050063;28;20486;-50
2023/08/13 10:03:34;;;;;;;5.10;0.45;;;21.70;99.90;;;;;;5050908;28;19924;-51
2023/08/13 10:05:59;;;;;;;2.95;0.50;;;21.90;99.90;;;;;;5048970;28;20414;-52
2023/08/13 10:08:25;;;;;;;;;;;22.00;99.90;;;;;;5050144;28;20052;-51
2023/08/13 10:10:51;;;;;;;4.70;0.75;;;22.00;99.90;;;;;;5019179;28;19924;-53
2023/08/13 10:13:17;;;;;;;;;;;22.10;99.90;;;;;;5042198;28;20648;-52
2023/08/13 10:15:44;;;;;;;5.43;0.40;;;22.20;99.90;;;;;;5038867;28;19974;-50
2023/08/13 10:18:10;;;;;;;6.30;0.47;;;22.30;99.90;;;;;;5038212;28;20128;-51
2023/08/13 10:20:36;;;;;;;;;;;22.60;99.90;;;;;;5047566;28;20630;-49
2023/08/13 10:23:07;;;;;;;4.72;0.55;;;22.60;99.90;;;;;;5041044;28;20397;-50
2023/08/13 10:25:33;;;;;;;2.97;0.45;;;22.70;99.90;;;;;;5050230;28;20107;-53
2023/08/13 10:27:59;;;;;;;5.00;0.43;;;22.70;99.90;;;;;;5049940;28;20029;-53
2023/08/13 10:30:26;;;;;;;2.42;0.30;;;22.70;99.90;;;;;;5037541;28;20041;-50
2023/08/13 10:32:57;;;;;;;2.75;0.40;;;22.70;99.90;;;;;;5034050;28;20036;-52
2023/08/13 10:35:34;;;;;;;4.43;0.38;;;22.70;99.90;;;;;;5036033;28;20123;-53
2023/08/13 10:38:01;;;;;;;1.80;0.30;;;22.70;99.90;;;;;;5038385;28;20515;-51
2023/08/13 10:40:27;;;;;;;5.50;0.40;;;22.90;99.90;;;;;;5041811;28;20034;-50
2023/08/13 10:42:55;;;;;;;6.38;0.50;;;22.90;99.90;;;;;;5046252;28;20038;-50
2023/08/13 10:45:25;;;;;;;4.07;0.60;;;22.90;99.90;;;;;;5048880;28;20037;-50
2023/08/13 10:47:52;;;;;;;3.03;0.20;;;22.80;99.90;;;;;;5047105;28;20498;-50
2023/08/13 10:50:30;;;;;;;2.88;0.60;;;22.70;99.90;;;;;;5044076;28;20228;-51
2023/08/13 10:53:11;;;;;;;4.07;0.63;;;22.50;99.90;;;;;;5047779;28;20069;-51
2023/08/13 10:55:59;;;;;;;3.03;0.40;;;22.30;99.90;;;;;;5049248;28;20600;-52
2023/08/13 10:58:35;;;;;;;4.03;0.50;;;22.30;99.90;;;;;;5046134;28;20375;-51
2023/08/13 11:01:10;;;;;;;2.00;0.40;;;22.30;99.90;;;;;;5036950;28;20656;-49
2023/08/13 11:04:09;;;;;;;2.85;0.20;;;22.50;99.90;;;;;;5032032;28;20041;-51
2023/08/13 11:06:36;;;;;;;2.92;0.30;;;22.60;99.90;;;;;;4960756;28;20595;-51
2023/08/13 11:09:06;;;;;;;4.35;0.65;;;22.50;99.90;;;;;;4968558;28;20054;-50
2023/08/13 11:11:32;;;;;;;2.97;0.50;;;22.40;99.90;;;;;;4958786;28;20483;-52
2023/08/13 11:13:58;;;;;;;;;;;22.30;99.90;;;;;;4969355;28;20161;-51
2023/08/13 11:16:27;;;;;;;2.13;0.40;;;22.30;99.90;;;;;;4967260;28;19925;-50
2023/08/13 11:18:53;;;;;;;4.63;0.90;;;22.30;99.90;;;;;;4965593;28;20096;-50
2023/08/13 11:21:18;;;;;;;;;;;22.20;99.90;;;;;;4964898;28;20039;-52
2023/08/13 11:23:44;;;;;;;2.63;0.60;;;22.30;99.90;;;;;;4969691;28;19925;-50
2023/08/13 11:26:10;;;;;;;;;;;22.30;99.90;;;;;;4968172;28;20133;-50
2023/08/13 11:28:35;;;;;;;5.32;0.63;;;22.40;99.90;;;;;;4965548;28;20297;-51
2023/08/13 11:31:01;;;;;;;1.58;0.50;;;22.40;99.90;;;;;;4964585;28;20038;-51
2023/08/13 11:33:26;;;;;;;4.15;0.70;;;22.40;99.90;;;;;;4973459;28;20043;-52
2023/08/13 11:35:53;;;;;;;;;;;22.50;99.90;;;;;;4971210;28;20055;-51
2023/08/13 11:38:20;;;;;;;7.78;1.02;;;22.40;99.90;;;;;;4961129;28;19930;-50
2023/08/13 11:40:46;;;;;;;6.65;0.80;;;22.50;99.90;;;;;;4978838;28;20546;-51
2023/08/13 11:43:12;;;;;;;;;;;22.40;99.90;;;;;;5043302;28;20174;-50
2023/08/13 11:45:38;;;;;;;5.55;0.60;;;22.30;99.90;;;;;;5034135;28;19917;-50
2023/08/13 11:48:08;;;;;;;6.50;1.52;;;22.20;99.90;;;;;;5050677;28;20414;-49
2023/08/13 11:50:34;;;;;;;4.35;0.82;;;22.20;99.90;;;;;;5051631;28;20037;-51
2023/08/13 11:53:03;;;;;;;;;;;22.10;99.90;;;;;;5050328;28;20115;-51
2023/08/13 11:55:30;;;;;;;10.00;0.90;;;22.10;99.90;;;;;;5053352;28;20000;-51
2023/08/13 11:57:57;;;;;;;7.13;0.80;;;22.00;99.90;;;;;;5046000;28;20128;-52
2023/08/13 12:00:24;;;;;;;9.45;3.00;;;21.90;99.90;;;;;;5016827;28;20049;-50
2023/08/13 12:02:56;;;;;;;10.65;1.33;;;21.90;99.90;;;;;;5051620;28;20083;-51
2023/08/13 12:05:28;;;;;;;7.20;1.13;;;21.90;99.90;;;;;;5049581;28;20506;-51
2023/08/13 12:08:04;;;;;;;5.35;1.08;;;21.90;99.90;;;;;;5045258;28;20463;-50
2023/08/13 12:10:32;;;;;;;8.30;1.08;;;22.00;99.90;;;;;;5050262;28;20064;-50
2023/08/13 12:12:58;;;;;;;5.93;1.08;;;22.00;99.90;;;;;;5052521;28;20102;-50
2023/08/13 12:15:24;;;;;;;;;;;22.10;99.90;;;;;;5053501;28;20493;-52
2023/08/13 12:17:55;;;;;;;7.38;1.38;;;22.10;99.90;;;;;;5049406;28;19975;-49
2023/08/13 12:20:20;;;;;;;6.25;0.93;;;22.20;99.90;;;;;;5030814;28;20528;-50
2023/08/13 12:22:46;;;;;;;;;;;22.30;99.90;;;;;;5050591;28;20084;-49
2023/08/13 12:25:12;;;;;;;5.90;1.08;;;22.30;99.90;;;;;;5046504;28;19921;-50
2023/08/13 12:27:37;;;;;;;11.45;1.58;;;22.30;99.90;;;;;;5052756;28;20083;-51
2023/08/13 12:30:03;;;;;;;;;;;22.40;99.90;;;;;;5052166;28;20029;-50
2023/08/13 12:32:29;;;;;;;8.52;0.95;;;22.40;99.90;;;;;;5052091;28;20019;-51
2023/08/13 12:34:54;;;;;;;8.05;0.80;;;22.40;99.90;;;;;;5041976;28;20469;-51
2023/08/13 12:37:20;;;;;;;4.68;1.02;;;22.40;99.90;;;;;;5052038;28;20029;-51
2023/08/13 12:39:46;;;;;;;;;;;22.40;99.90;;;;;;5045198;28;20040;-51
2023/08/13 12:42:11;;;;;;;8.68;1.55;;;22.40;99.90;;;;;;5034849;28;19971;-50
2023/08/13 12:44:37;;;;;;;;;;;22.50;99.90;;;;;;5050541;28;20513;-51
2023/08/13 12:47:02;;;;;;;6.38;1.05;;;22.60;99.90;;;;;;5052031;28;19999;-50
2023/08/13 12:49:28;;;;;;;4.32;0.75;;;22.70;99.90;;;;;;5044719;28;20037;-51